Terminal Aerodrome Forecast
Issued by NWS

Home | Current Version | Previous Version | Graphics & Text | Print | Product List | Glossary On
Versions: 1 2 3 4 5 6 7 8 9 10 11 12 13
000
FTUS45 KGGW 091738
TAFSDY
TAF
KSDY 091738Z 0918/1018 00000KT P6SM SCT015
     FM101000 09006KT P6SM BKN020
     FM101300 10007KT P6SM VCSH BKN015
     FM101600 10008KT 6SM -SN OVC015=

USA.gov is the U.S. government's official web portal to all federal, state and local government web resources and services.